Time;durP1;ratioP1;P1;durP2;ratioP2;P2;SDS_P1;SDS_P2;PMS_P1;PMS_P2;Temp;Humidity;BMP_temperature;BMP_pressure;BME280_temperature;BME280_humidity;BME280_pressure;Samples;Min_cycle;Max_cycle;Signal;HPM_P1;HPM_P2
2023/07/09 00:01:39;;;;;;;;;;;;;;;24.15;100.00;100117.97;5070797;28;19917;-78
2023/07/09 00:04:05;;;;;;;;;;;;;;;24.16;100.00;100131.22;5065857;28;19928;-76
2023/07/09 00:06:30;;;;;;;;;;;;;;;24.15;100.00;100128.75;5071004;28;19978;-79
2023/07/09 00:08:56;;;;;;;;;;;;;;;24.17;100.00;100132.06;5070950;28;19916;-76
2023/07/09 00:11:21;;;;;;;;;;;;;;;24.16;100.00;100130.41;5071173;28;19923;-78
2023/07/09 00:13:47;;;;;;;;;;;;;;;24.16;100.00;100125.00;5070594;28;19920;-78
2023/07/09 00:16:14;;;;;;;;;;;;;;;24.12;100.00;100127.31;5069331;28;19927;-78
2023/07/09 00:18:39;;;;;;;;;;;;;;;23.99;100.00;100125.53;5050840;28;20296;-77
2023/07/09 00:21:05;;;;;;;;;;;;;;;23.82;100.00;100113.59;5070957;28;19916;-77
2023/07/09 00:23:31;;;;;;;;;;;;;;;23.53;100.00;100119.53;5070544;28;19966;-77
2023/07/09 00:25:56;;;;;;;;;;;;;;;23.51;100.00;100111.66;5065907;28;19923;-76
2023/07/09 00:28:22;;;;;;;;;;;;;;;23.59;100.00;100114.13;5071115;28;19917;-77
2023/07/09 00:30:47;;;;;;;;;;;;;;;23.67;100.00;100115.75;5070148;28;20288;-76
2023/07/09 00:33:14;;;;;;;;;;;;;;;23.39;100.00;100115.19;5070217;28;19926;-76
2023/07/09 00:35:40;;;;;;;;;;;;;;;23.12;100.00;100112.56;5065792;28;19943;-76
2023/07/09 00:38:12;;;;;;;;;;;;;;;23.21;100.00;100118.53;5070409;28;19923;-76
2023/07/09 00:40:37;;;;;;;;;;;;;;;23.28;100.00;100117.50;5070330;28;19924;-76
2023/07/09 00:43:12;;;;;;;;;;;;;;;23.30;100.00;100114.59;5068987;28;19982;-77
2023/07/09 00:45:39;;;;;;;;;;;;;;;23.12;100.00;100117.94;5065368;28;20272;-76
2023/07/09 00:48:06;;;;;;;;;;;;;;;23.19;100.00;100110.69;5069976;28;19970;-76
2023/07/09 00:50:41;;;;;;;;;;;;;;;23.23;100.00;100117.31;5069868;28;20283;-77
2023/07/09 00:53:19;;;;;;;;;;;;;;;23.23;100.00;100125.38;5073182;28;20303;-76
2023/07/09 00:55:46;;;;;;;;;;;;;;;23.27;100.00;100132.00;5071403;28;19992;-76
2023/07/09 00:58:15;;;;;;;;;;;;;;;23.24;100.00;100137.81;5073127;28;19916;-77
2023/07/09 01:00:49;;;;;;;;;;;;;;;23.22;100.00;100134.50;5069843;28;19925;-78
2023/07/09 01:03:25;;;;;;;;;;;;;;;23.29;100.00;100134.47;5067260;28;19912;-77
2023/07/09 01:05:51;;;;;;;;;;;;;;;23.25;100.00;100144.84;5071755;28;19916;-78
2023/07/09 01:08:17;;;;;;;;;;;;;;;23.26;100.00;100140.31;5074608;28;19975;-78
2023/07/09 01:10:45;;;;;;;;;;;;;;;23.26;100.00;100143.81;5068750;28;20342;-77
2023/07/09 01:13:11;;;;;;;;;;;;;;;23.24;100.00;100143.19;5074290;28;20004;-75
2023/07/09 01:15:37;;;;;;;;;;;;;;;23.31;100.00;100148.56;5073511;28;19916;-76
2023/07/09 01:18:03;;;;;;;;;;;;;;;23.36;100.00;100145.25;5074615;28;20271;-77
2023/07/09 01:20:29;;;;;;;;;;;;;;;23.35;100.00;100154.34;5074339;28;19917;-78
2023/07/09 01:22:54;;;;;;;;;;;;;;;23.34;100.00;100153.53;5074192;28;19920;-78
2023/07/09 01:25:20;;;;;;;;;;;;;;;23.38;100.00;100160.16;5073680;28;20372;-77
2023/07/09 01:27:46;;;;;;;;;;;;;;;23.45;100.00;100154.72;5073275;28;20268;-79
2023/07/09 01:30:16;;;;;;;;;;;;;;;23.46;100.00;100151.00;5073329;28;20343;-79
2023/07/09 01:32:45;;;;;;;;;;;;;;;23.40;100.00;100152.69;5070009;28;20331;-79
2023/07/09 01:35:13;;;;;;;;;;;;;;;23.37;100.00;100149.59;5069524;28;19917;-79
2023/07/09 01:37:38;;;;;;;;;;;;;;;23.39;100.00;100150.19;5072825;28;19961;-79
2023/07/09 01:40:05;;;;;;;;;;;;;;;23.38;100.00;100151.25;5072010;28;20008;-79
2023/07/09 01:42:31;;;;;;;;;;;;;;;23.35;100.00;100157.03;5072901;28;19920;-79
2023/07/09 01:44:56;;;;;;;;;;;;;;;23.32;100.00;100154.78;5072643;28;20288;-78
2023/07/09 01:47:23;;;;;;;;;;;;;;;23.35;100.00;100148.97;5071886;28;19920;-78
2023/07/09 01:49:49;;;;;;;;;;;;;;;23.25;100.00;100144.84;5071466;28;19923;-78
2023/07/09 01:52:16;;;;;;;;;;;;;;;23.26;100.00;100143.81;5073190;28;19916;-78
2023/07/09 01:54:41;;;;;;;;;;;;;;;23.31;100.00;100153.13;5072903;28;20291;-78
2023/07/09 01:57:15;;;;;;;;;;;;;;;23.25;100.00;100160.19;5071748;28;20357;-78
2023/07/09 01:59:41;;;;;;;;;;;;;;;23.23;100.00;100152.31;5083922;28;19916;-78
2023/07/09 02:02:07;;;;;;;;;;;;;;;23.16;100.00;100151.47;5071505;28;19966;-78
2023/07/09 02:04:32;;;;;;;;;;;;;;;22.97;100.00;100148.84;5071329;28;20396;-78
2023/07/09 02:06:58;;;;;;;;;;;;;;;22.84;100.00;100152.38;5073101;28;19916;-77
2023/07/09 02:09:23;;;;;;;;;;;;;;;22.68;100.00;100150.06;5072875;28;19962;-78
2023/07/09 02:11:49;;;;;;;;;;;;;;;22.68;100.00;100152.75;5067035;28;19916;-78
2023/07/09 02:14:14;;;;;;;;;;;;;;;22.34;100.00;100151.88;5050698;28;20414;-78
2023/07/09 02:16:43;;;;;;;;;;;;;;;22.13;100.00;100154.75;5071134;28;19959;-78
2023/07/09 02:19:09;;;;;;;;;;;;;;;22.15;100.00;100151.84;5072758;28;19916;-77
2023/07/09 02:21:34;;;;;;;;;;;;;;;22.25;100.00;100153.13;5072044;28;19924;-78
2023/07/09 02:24:02;;;;;;;;;;;;;;;22.18;100.00;100152.25;5071097;28;19928;-79
2023/07/09 02:26:27;;;;;;;;;;;;;;;21.88;100.00;100167.84;5066761;28;19916;-77
2023/07/09 02:28:52;;;;;;;;;;;;;;;21.94;100.00;100166.22;5072409;28;19920;-78
2023/07/09 02:31:19;;;;;;;8.85;5.10;;;;;;;21.87;100.00;100165.34;5071824;28;19916;-78
2023/07/09 02:33:44;;;;;;;;;;;;;;;21.78;100.00;100170.09;5072707;28;20303;-77
2023/07/09 02:36:10;;;;;;;;;;;;;;;21.88;100.00;100173.22;5072675;28;19921;-78
2023/07/09 02:38:36;;;;;;;;;;;;;;;21.97;100.00;100173.94;5072708;28;19999;-78
2023/07/09 02:41:01;;;;;;;;;;;;;;;22.02;100.00;100174.97;5072594;28;19920;-78
2023/07/09 02:43:26;;;;;;;;;;;;;;;21.87;100.00;100173.41;5071500;28;19920;-78
2023/07/09 02:45:52;;;;;;;;;;;;;;;21.95;100.00;100179.50;5072348;28;20425;-78
2023/07/09 02:48:17;;;;;;;;;;;;;;;21.74;100.00;100182.25;5067305;28;19927;-78
2023/07/09 02:50:43;;;;;;;;;;;;;;;21.85;100.00;100186.25;5072049;28;19930;-78
2023/07/09 02:53:08;;;;;;;;;;;;;;;21.95;100.00;100187.56;5072378;28;19925;-78
2023/07/09 02:55:34;;;;;;;;;;;;;;;22.01;100.00;100185.91;5068870;28;19971;-77
2023/07/09 02:58:00;;;;;;;;;;;;;;;22.08;100.00;100186.78;5071436;28;19985;-77
2023/07/09 03:00:26;;;;;;;;;;;;;;;21.98;100.00;100189.81;5066928;28;19931;-77
2023/07/09 03:02:51;;;;;;;;;;;;;;;21.97;100.00;100192.72;5071260;28;19920;-78
2023/07/09 03:05:17;;;;;;;;;;;;;;;22.02;100.00;100191.09;5067086;28;19927;-77
2023/07/09 03:07:42;;;;;;;;;;;;;;;22.11;100.00;100193.59;5071883;28;19931;-77
2023/07/09 03:10:08;;;;;;;;;;;;;;;22.10;100.00;100192.75;5072178;28;19950;-76
2023/07/09 03:12:33;;;;;;;;;;;;;;;21.98;100.00;100189.00;5072137;28;20007;-77
2023/07/09 03:14:59;;;;;;;;;;;;;;;22.13;100.00;100197.75;5071644;28;19920;-77
2023/07/09 03:17:24;;;;;;;;;;;;;;;22.23;100.00;100197.34;5072393;28;19997;-77
2023/07/09 03:19:50;;;;;;;;;;;;;;;22.29;100.00;100194.69;5071915;28;19951;-77
2023/07/09 03:22:16;;;;;;;;;;;;;;;22.35;100.00;100201.09;5066664;28;19921;-77
2023/07/09 03:24:41;;;;;;;;;;;;;;;22.38;100.00;100185.38;5066150;28;20284;-77
2023/07/09 03:27:08;;;;;;;;;;;;;;;22.32;100.00;100191.59;5071913;28;19927;-77
2023/07/09 03:29:33;;;;;;;;;;;;;;;22.41;100.00;100195.75;5071518;28;19931;-77
2023/07/09 03:31:58;;;;;;;;;;;;;;;22.39;100.00;100191.59;5070942;28;19924;-78
2023/07/09 03:34:24;;;;;;;;;;;;;;;22.36;100.00;100198.22;5072252;28;19916;-79
2023/07/09 03:36:49;;;;;;;;;;;;;;;22.38;100.00;100201.50;5071710;28;19931;-75
2023/07/09 03:39:15;;;;;;;;;;;;;;;22.41;100.00;100206.50;5066730;28;19916;-75
2023/07/09 03:41:40;;;;;;;;;;;;;;;22.30;100.00;100204.41;5071794;28;19920;-76
2023/07/09 03:44:06;;;;;;;;;;;;;;;22.29;100.00;100202.75;5072118;28;19927;-77
2023/07/09 03:46:31;;;;;;;;;;;;;;;22.21;100.00;100210.97;5072075;28;19935;-76
2023/07/09 03:48:58;;;;;;;;;;;;;;;22.28;100.00;100206.47;5072284;28;20382;-77
2023/07/09 03:51:23;;;;;;;;;;;;;;;22.20;100.00;100203.97;5068764;28;19981;-76
2023/07/09 03:53:49;;;;;;;;;;;;;;;22.05;100.00;100209.50;5071660;28;20497;-77
2023/07/09 03:56:14;;;;;;;;;;;;;;;21.91;100.00;100204.25;5071606;28;19920;-77
2023/07/09 03:58:40;;;;;;;;;;;;;;;21.79;100.00;100219.28;5068213;28;19927;-77
2023/07/09 04:01:05;;;;;;;;;;;;;;;21.82;100.00;100216.19;5071682;28;19920;-77
2023/07/09 04:03:31;;;;;;;;;;;;;;;21.80;100.00;100224.44;5072119;28;19963;-77
2023/07/09 04:05:56;;;;;;;;;;;;;;;21.78;100.00;100217.63;5072089;28;19920;-77
2023/07/09 04:08:22;;;;;;;;;;;;;;;21.81;100.00;100217.19;5072563;28;19966;-77
2023/07/09 04:10:47;;;;;;;;;;;;;;;21.58;100.00;100214.81;5071796;28;19971;-79
2023/07/09 04:13:12;;;;;;;;;;;;;;;21.70;100.00;100229.34;5072231;28;19928;-77
2023/07/09 04:15:38;;;;;;;;;;;;;;;21.70;100.00;100228.50;5071759;28;19928;-78
2023/07/09 04:18:03;;;;;;;;;;;;;;;21.46;100.00;100230.66;5071396;28;19978;-77
2023/07/09 04:20:29;;;;;;;;;;;;;;;21.47;100.00;100226.94;5071111;28;20029;-77
2023/07/09 04:22:54;;;;;;;;;;;;;;;21.48;100.00;100233.97;5071306;28;19920;-74
2023/07/09 04:25:20;;;;;;;;;;;;;;;21.16;100.00;100226.50;5071320;28;19916;-75
2023/07/09 04:27:45;;;;;;;;;;;;;;;21.04;100.00;100230.72;5071507;28;19932;-80
2023/07/09 04:30:12;;;;;;;;;;;;;;;21.10;100.00;100227.25;5074881;28;19928;-78
2023/07/09 04:32:38;;;;;;;;;;;;;;;21.22;100.00;100231.09;5074823;28;19920;-77
2023/07/09 04:35:06;;;;;;;;;;;;;;;21.29;100.00;100226.59;5075378;28;19925;-76
2023/07/09 04:37:32;;;;;;;;;;;;;;;21.37;100.00;100229.16;5074756;28;19920;-79
2023/07/09 04:39:57;;;;;;;;;;;;;;;21.50;100.00;100234.59;5075565;28;19920;-77
2023/07/09 04:42:22;;;;;;;;;;;;;;;21.56;100.00;100235.66;5075273;28;19924;-78
2023/07/09 04:44:48;;;;;;;;;;;;;;;21.67;100.00;100234.28;5085568;28;20019;-78
2023/07/09 04:47:13;;;;;;;;;;;;;;;21.71;100.00;100236.38;5074428;28;20610;-76
2023/07/09 04:49:39;;;;;;;;;;;;;;;21.57;100.00;100231.94;5072969;28;19947;-77
2023/07/09 04:52:04;;;;;;;;;;;;;;;21.61;100.00;100239.44;5074700;28;19935;-76
2023/07/09 04:54:30;;;;;;;;;;;;;;;21.71;100.00;100235.56;5074148;28;19974;-77
2023/07/09 04:56:56;;;;;;;;;;;;;;;21.82;100.00;100243.03;5074135;28;19921;-76
2023/07/09 04:59:23;;;;;;;;;;;;;;;21.85;100.00;100239.97;5074075;28;20011;-77
2023/07/09 05:01:49;;;;;;;;;;;;;;;21.72;100.00;100238.03;5071768;28;19979;-77
2023/07/09 05:04:14;;;;;;;;;;;;;;;21.53;100.00;100244.94;5071521;28;20081;-75
2023/07/09 05:06:40;;;;;;;;;;;;;;;21.63;100.00;100245.41;5069663;28;19982;-75
2023/07/09 05:09:05;;;;;;;;;;;;;;;21.75;100.00;100242.19;5073953;28;19944;-77
2023/07/09 05:11:33;;;;;;;;;;;;;;;21.89;100.00;100254.66;5073365;28;20006;-77
2023/07/09 05:14:01;;;;;;;;;;;;;;;21.88;100.00;100253.00;5073439;28;19981;-77
2023/07/09 05:16:26;;;;;;;;;;;;;;;21.86;100.00;100249.66;5076283;22;19951;-77
2023/07/09 05:18:52;;;;;;;;;;;;;;;21.93;100.00;100246.00;5056671;28;19924;-77
2023/07/09 05:21:17;;;;;;;;;;;;;;;22.05;100.00;100254.34;5053666;28;19943;-77
2023/07/09 05:23:42;;;;;;;;;;;;;;;22.16;100.00;100253.78;5058184;28;20387;-74
2023/07/09 05:26:08;;;;;;;;;;;;;;;22.22;100.00;100261.03;5054376;28;20384;-74
2023/07/09 05:28:34;;;;;;;;;;;;;;;22.30;100.00;100262.72;5054281;28;19924;-76
2023/07/09 05:30:59;;;;;;;;;;;;;;;22.36;100.00;100261.91;5053532;28;19924;-77
2023/07/09 05:33:24;;;;;;;;;;;;;;;22.41;100.00;100262.97;5054193;28;19920;-76
2023/07/09 05:35:50;;;;;;;;;;;;;;;22.48;100.00;100259.47;5056087;28;19924;-74
2023/07/09 05:38:15;;;;;;;;;;;;;;;22.53;100.00;100257.00;5056652;28;19929;-76
2023/07/09 05:40:42;;;;;;;;;;;;;;;22.52;100.00;100261.56;5053003;28;19921;-75
2023/07/09 05:43:07;;;;;;;;;;;;;;;22.61;100.00;100264.91;5058750;28;20144;-75
2023/07/09 05:45:32;;;;;;;;;;;;;;;22.63;100.00;100257.44;5059149;28;20048;-76
2023/07/09 05:48:01;;;;;;;;;;;;;;;22.70;100.00;100260.97;5057062;28;20307;-76
2023/07/09 05:50:27;;;;;;;;;;;;;;;22.77;100.00;100253.78;5055459;28;19928;-76
2023/07/09 05:52:53;;;;;;;;;;;;;;;22.83;100.00;100253.78;5055334;28;19924;-76
2023/07/09 05:55:18;;;;;;;;;;;;;;;22.89;100.00;100256.69;5056662;28;19921;-76
2023/07/09 05:57:43;;;;;;;;;;;;;;;22.88;100.00;100261.25;5058626;28;20011;-76
2023/07/09 06:00:09;;;;;;;;;;;;;;;22.91;100.00;100258.16;5052544;28;20112;-76
2023/07/09 06:02:41;;;;;;;;;;;;;;;22.98;100.00;100256.28;5057947;28;19921;-76
2023/07/09 06:05:10;;;;;;;;;;;;;;;23.06;100.00;100256.06;5054194;28;19988;-75
2023/07/09 06:07:37;;;;;;;;;;;;;;;23.10;100.00;100260.00;5056215;28;19927;-76
2023/07/09 06:10:02;;;;;;;;;;;;;;;23.17;100.00;100260.84;5056822;28;19920;-75
2023/07/09 06:12:27;;;;;;;;;;;;;;;23.24;100.00;100261.66;5055499;28;19928;-75
2023/07/09 06:14:53;;;;;;;;;;;;;;;23.30;100.00;100264.56;5053201;28;20454;-76
2023/07/09 06:17:18;;;;;;;;;;;;;;;23.28;100.00;100262.91;5054944;28;20000;-76
2023/07/09 06:19:44;;;;;;;;;;;;;;;23.25;100.00;100259.81;5054518;28;19925;-76
2023/07/09 06:22:09;;;;;;;;;;;;;;;23.27;100.00;100261.25;5056645;28;20395;-75
2023/07/09 06:24:34;;;;;;;;;;;;;;;23.37;100.00;100249.25;5056004;28;20367;-75
2023/07/09 06:27:00;;;;;;;;;;;;;;;23.44;100.00;100250.06;5054939;28;20034;-76
2023/07/09 06:29:25;;;;;;;;;;;;;;;23.49;100.00;100251.13;5056496;28;20335;-77
2023/07/09 06:31:50;;;;;;;;;;;;;;;23.58;100.00;100246.31;5056100;28;20416;-76
2023/07/09 06:34:15;;;;;;;;;;;;;;;23.63;100.00;100250.03;5053492;28;19917;-76
2023/07/09 06:36:41;;;;;;;;;;;;;;;23.70;100.00;100243.81;5059208;28;19921;-77
2023/07/09 06:39:06;;;;;;;;;;;;;;;23.76;100.00;100249.19;5054269;28;19921;-76
2023/07/09 06:41:38;;;;;;;;;;;;;;;23.84;100.00;100251.66;5056190;28;19917;-77
2023/07/09 06:44:07;;;;;;;;;;;;;;;23.92;100.00;100254.09;5054032;28;20456;-77
2023/07/09 06:46:33;;;;;;;;;;;;;;;23.99;100.00;100249.53;5053023;28;19921;-76
2023/07/09 06:48:58;;;;;;;;;;;;;;;24.05;100.00;100259.47;5056051;28;19928;-75
2023/07/09 06:51:23;;;;;;;;;;;;;;;24.14;100.00;100256.53;5055884;28;19931;-75
2023/07/09 06:53:51;;;;;;;;;;;;;;;24.15;100.00;100259.00;5052513;28;20020;-75
2023/07/09 06:56:16;;;;;;;;;;;;;;;24.19;100.00;100254.88;5055088;28;19921;-75
2023/07/09 06:58:42;;;;;;;;;;;;;;;24.27;100.00;100257.31;5054314;28;19927;-74
2023/07/09 07:01:09;;;;;;;;;;;;;;;24.30;100.00;100256.06;5052142;28;20015;-74
2023/07/09 07:03:35;;;;;;;;;;;;;;;24.36;100.00;100260.59;5055463;28;19929;-75
2023/07/09 07:06:01;;;;;;;;;;;;;;;24.41;100.00;100253.53;5048531;28;19921;-76
2023/07/09 07:08:26;;;;;;;;;;;;;;;24.49;100.00;100255.16;5048548;28;19921;-75
2023/07/09 07:11:01;;;;;;;;;;;;;;;24.56;100.00;100258.66;5055319;28;19921;-75
2023/07/09 07:13:27;;;;;;;;;;;;;;;24.67;100.00;100255.25;5059766;28;20028;-76
2023/07/09 07:15:53;;;;;;;;;;;;;;;24.75;100.00;100263.06;5054187;28;19924;-75
2023/07/09 07:18:18;;;;;;;;;;;;;;;24.84;100.00;100253.69;5054418;28;20423;-76
2023/07/09 07:20:44;;;;;;;;;;;;;;;24.86;100.00;100253.44;5051313;28;20381;-77
2023/07/09 07:23:09;;;;;;;;;;;;;;;24.91;100.00;100247.44;5056168;28;19963;-76
2023/07/09 07:25:34;;;;;;;;;;;;;;;24.96;100.00;100255.69;5053029;28;19975;-77
2023/07/09 07:28:00;;;;;;;;;;;;;;;25.00;100.00;100246.09;5053574;28;20394;-75
2023/07/09 07:30:25;;;;;;;;;;;;;;;25.06;100.00;100245.22;5055706;28;19927;-76
2023/07/09 07:32:50;;;;;;;;;;;;;;;25.12;100.00;100245.19;5052664;28;19921;-76
2023/07/09 07:35:17;;;;;;;;;;;;;;;25.24;100.00;100250.69;5054647;28;19920;-76
2023/07/09 07:37:42;;;;;;;;;;;;;;;25.32;100.00;100242.31;5050816;28;20050;-76
2023/07/09 07:40:08;;;;;;;;;;;;;;;25.39;100.00;100240.34;5052185;28;20011;-76
2023/07/09 07:42:33;;;;;;;;;;;;;;;25.47;100.00;100240.06;5055010;28;20129;-78
2023/07/09 07:44:59;;;;;;;;;;;;;;;25.54;100.00;100238.13;5054288;28;20735;-77
2023/07/09 07:47:25;;;;;;;;;;;;;;;25.58;100.00;100236.66;5053086;28;20321;-76
2023/07/09 07:49:51;;;;;;;;;;;;;;;25.66;100.00;100239.09;5056631;28;19970;-75
2023/07/09 07:52:16;;;;;;;;;;;;;;;25.75;100.00;100236.06;5054011;28;19921;-77
2023/07/09 07:54:41;;;;;;;;;;;;;;;25.83;100.00;100243.88;5050850;28;19920;-76
2023/07/09 07:57:08;;;;;;;;;;;;;;;25.89;100.00;100243.00;5055676;28;19925;-76
2023/07/09 07:59:34;;;;;;;;;;;;;;;25.94;100.00;100240.44;5053019;28;20011;-76
2023/07/09 08:02:00;;;;;;;;;;;;;;;26.01;100.00;100233.91;5052176;28;20055;-77
2023/07/09 08:04:26;;;;;;;;;;;;;;;26.08;100.00;100239.22;5054347;28;19999;-76
2023/07/09 08:06:52;;;;;;;;;;;;;;;26.14;100.00;100237.50;5053137;28;19952;-77
2023/07/09 08:09:18;;;;;;;;;;;;;;;26.19;100.00;100224.94;5054666;28;19944;-77
2023/07/09 08:11:43;;;;;;;;;;;;;;;26.27;100.00;100226.53;5053888;28;19921;-75
2023/07/09 08:14:09;;;;;;;;;;;;;;;26.32;100.00;100232.09;5051040;28;19966;-76
2023/07/09 08:16:34;;;;;;;;;;;;;;;26.37;100.00;100227.63;5050866;28;19970;-76
2023/07/09 08:19:00;;;;;;;;;;;;;;;26.42;100.00;100219.66;5053702;28;19921;-77
2023/07/09 08:21:25;;;;;;;;;;;;;;;26.51;100.00;100227.47;5052318;28;19967;-77
2023/07/09 08:23:50;;;;;;;;;;;;;;;26.57;100.00;100223.81;5055607;28;19971;-76
2023/07/09 08:26:16;;;;;;;;;;;;;;;26.64;100.00;100230.78;5053121;28;19925;-77
2023/07/09 08:28:41;;;;;;;;;;;;;;;26.71;100.00;100226.09;5054091;28;20006;-77
2023/07/09 08:31:06;;;;;;;;;;;;;;;26.77;100.00;100218.91;5053866;28;19924;-76
2023/07/09 08:33:32;;;;;;;;;;;;;;;26.84;100.00;100211.53;5052542;28;19994;-75
2023/07/09 08:35:57;;;;;;;;;;;;;;;26.89;100.00;100207.09;5051152;28;19921;-76
2023/07/09 08:38:22;;;;;;;;;;;;;;;26.99;100.00;100208.38;5054776;28;19927;-76
2023/07/09 08:40:57;;;;;;;;;;;;;;;27.06;100.00;100209.94;5051009;28;20503;-75
2023/07/09 08:43:22;;;;;;;;;;;;;;;27.15;100.00;100213.97;5053890;28;20404;-76
2023/07/09 08:45:55;;;;;;;;;;;;;;;27.21;100.00;100202.19;5056842;28;19959;-74
2023/07/09 08:48:21;;;;;;;;;;;;;;;27.25;100.00;100203.34;5050789;28;20328;-75
2023/07/09 08:50:49;;;;;;;;;;;;;;;27.27;100.00;100203.13;5055691;28;20023;-75
2023/07/09 08:53:19;;;;;;;;;;;;;;;27.33;100.00;100209.47;5051535;28;19921;-75
2023/07/09 08:55:45;;;;;;;;;;;;;;;27.41;100.00;100200.97;5050858;28;20819;-75
2023/07/09 08:58:14;;;;;;;;;;;;;;;27.46;100.00;100203.78;5049004;28;20365;-76
2023/07/09 09:00:51;;;;;;;;;;;;;;;27.55;100.00;100211.38;5051813;28;20305;-75
2023/07/09 09:03:19;;;;;;;;;;;;;;;27.65;100.00;100208.06;5054360;28;19927;-76
2023/07/09 09:05:46;;;;;;;;;;;;;;;27.72;100.00;100208.75;5054174;28;19921;-76
2023/07/09 09:08:17;;;;;;;;;;;;;;;27.79;100.00;100214.88;5046838;28;19928;-76
2023/07/09 09:10:46;;;;;;;;;;;;;;;27.86;98.95;100203.91;5055071;28;19929;-76
2023/07/09 09:13:13;;;;;;;;;;;;;;;27.91;99.61;100206.72;5046646;28;20012;-75
2023/07/09 09:15:40;;;;;;;;;;;;;;;27.97;99.30;100206.56;5056182;28;19928;-76
2023/07/09 09:18:18;;;;;;;;;;;;;;;28.00;98.58;100206.09;5056261;28;20408;-76
2023/07/09 09:20:45;;;;;;;;;;;;;;;28.03;98.13;100200.19;5049933;28;19923;-76
2023/07/09 09:23:14;;;;;;;;;;;;;;;28.06;98.42;100198.88;5054704;28;19927;-76
2023/07/09 09:25:41;;;;;;;;;;;;;;;28.09;98.52;100199.22;5054620;28;20007;-77
2023/07/09 09:28:07;;;;;;;;;;;;;;;28.15;98.59;100202.06;5055751;28;20031;-75
2023/07/09 09:30:32;;;;;;;7.43;4.88;;;;;;;28.19;97.40;100203.22;5055234;28;20460;-74
2023/07/09 09:33:01;;;;;;;4.60;4.20;;;;;;;28.23;97.65;100193.53;5055574;28;20111;-76
2023/07/09 09:35:36;;;;;;;5.18;4.43;;;;;;;28.29;96.17;100198.81;5056895;28;20036;-77
2023/07/09 09:38:02;;;;;;;4.40;4.00;;;;;;;28.34;95.44;100195.34;5057208;28;20033;-77
2023/07/09 09:40:34;;;;;;;4.72;4.32;;;;;;;28.42;91.59;100194.97;5053396;28;20071;-76
2023/07/09 09:43:01;;;;;;;5.55;4.30;;;;;;;28.44;92.77;100190.97;5059433;28;20036;-78
2023/07/09 09:45:34;;;;;;;6.72;4.68;;;;;;;28.48;92.92;100191.28;5054447;28;20025;-76
2023/07/09 09:48:05;;;;;;;4.85;4.13;;;;;;;28.54;92.14;100189.47;5056675;28;20046;-77
2023/07/09 09:50:32;;;;;;;6.63;4.50;;;;;;;28.57;91.86;100189.00;5055452;28;20477;-77
2023/07/09 09:52:59;;;;;;;6.22;4.25;;;;;;;28.61;91.58;100180.13;5051801;28;20555;-76
2023/07/09 09:55:29;;;;;;;6.25;4.45;;;;;;;28.67;91.09;100179.13;5056542;28;20461;-76
2023/07/09 09:57:56;;;;;;;5.10;4.22;;;;;;;28.73;89.56;100178.19;5056772;28;20044;-76
2023/07/09 10:00:28;;;;;;;5.25;4.75;;;;;;;28.81;89.58;100175.03;5053777;28;20108;-76
2023/07/09 10:02:59;;;;;;;5.25;4.30;;;;;;;28.84;88.39;100180.00;5057516;28;20033;-76
2023/07/09 10:05:31;;;;;;;;;;;;;;;28.93;87.55;100177.66;5055613;28;20115;-76
2023/07/09 10:07:56;;;;;;;;;;;;;;;28.97;87.84;100178.00;5057055;28;20349;-76
2023/07/09 10:10:24;;;;;;;;;;;;;;;28.98;87.81;100174.22;5058358;28;19955;-77
2023/07/09 10:12:52;;;;;;;;;;;;;;;28.99;87.90;100173.13;5053625;28;19916;-75
2023/07/09 10:15:24;;;;;;;;;;;;;;;29.01;87.45;100168.28;5056023;28;19934;-74
2023/07/09 10:17:58;;;;;;;5.17;4.67;;;;;;;29.02;88.65;100169.94;5054572;28;19917;-76
2023/07/09 10:20:31;;;;;;;5.75;4.45;;;;;;;29.08;87.62;100168.94;5053962;28;20106;-77
2023/07/09 10:23:16;;;;;;;6.60;4.57;;;;;;;29.14;87.81;100154.38;5055814;28;20033;-75
2023/07/09 10:25:52;;;;;;;5.22;4.70;;;;;;;29.17;86.62;100170.16;5048582;28;20040;-75
2023/07/09 10:28:44;;;;;;;5.88;4.57;;;;;;;29.17;85.72;100168.25;5054265;28;20032;-75
2023/07/09 10:31:40;;;;;;;7.43;4.88;;;;;;;29.21;86.86;100161.28;5033344;28;20055;-76
2023/07/09 10:34:41;;;;;;;5.90;4.80;;;;;;;29.33;85.64;100161.19;5052633;28;20370;-76
2023/07/09 10:37:27;;;;;;;5.03;4.30;;;;;;;29.41;83.86;100163.47;5046369;28;20033;-76
2023/07/09 10:39:58;;;;;;;6.30;4.85;;;;;;;29.46;84.31;100163.53;5059008;28;20445;-75
2023/07/09 10:42:27;;;;;;;6.85;4.45;;;;;;;29.47;84.72;100158.91;5051950;28;20076;-77
2023/07/09 10:45:01;;;;;;;7.10;4.45;;;;;;;29.50;84.36;100161.16;5056424;28;20028;-76
2023/07/09 10:47:33;;;;;;;5.38;4.78;;;;;;;29.51;84.53;100158.16;5047502;28;20036;-77
2023/07/09 10:50:01;;;;;;;5.85;4.93;;;;;;;29.52;84.33;100157.09;5055221;28;20032;-76
2023/07/09 10:52:36;;;;;;;5.30;4.80;;;;;;;29.51;84.23;100152.72;5054861;28;20032;-76
2023/07/09 10:55:26;;;;;;;5.97;4.47;;;;;;;29.53;84.15;100150.59;5051799;28;20037;-75
2023/07/09 10:58:00;;;;;;;8.85;5.45;;;;;;;29.59;84.54;100155.00;5054578;28;20045;-76
2023/07/09 11:00:39;;;;;;;;;;;;;;;29.66;83.49;100146.66;5053181;28;20150;-75
2023/07/09 11:03:25;;;;;;;;;;;;;;;29.67;83.76;100140.97;5055153;28;19924;-76
2023/07/09 11:05:51;;;;;;;4.95;4.45;;;;;;;29.74;82.89;100137.25;5046978;28;20130;-75
2023/07/09 11:08:35;;;;;;;5.10;4.30;;;;;;;29.80;81.99;100133.50;5051534;28;20040;-75
2023/07/09 11:11:10;;;;;;;5.05;4.45;;;;;;;29.84;82.45;100134.63;5052325;28;20048;-76
2023/07/09 11:13:43;;;;;;;4.70;4.30;;;;;;;29.90;81.79;100128.19;5052492;28;20048;-76
2023/07/09 11:16:14;;;;;;;6.05;4.40;;;;;;;29.96;80.09;100127.19;5050544;28;20048;-76
2023/07/09 11:18:39;;;;;;;6.70;4.97;;;;;;;30.07;79.12;100128.94;5054748;28;20033;-76
2023/07/09 11:21:13;;;;;;;4.78;4.32;;;;;;;30.08;76.87;100119.69;5051935;28;20040;-76
2023/07/09 11:24:00;;;;;;;4.82;4.13;;;;;;;30.07;78.75;100118.03;5056655;28;20078;-76
2023/07/09 11:26:27;;;;;;;5.22;3.80;;;;;;;30.09;78.08;100113.19;5051011;28;20029;-75
2023/07/09 11:29:08;;;;;;;6.53;4.35;;;;;;;30.14;78.26;100112.41;5054278;28;20118;-76
2023/07/09 11:31:46;;;;;;;4.30;3.88;;;;;;;30.24;74.81;100105.16;5054501;28;20115;-75
2023/07/09 11:34:15;;;;;;;5.28;4.05;;;;;;;30.26;75.64;100100.28;5047601;28;20524;-75
2023/07/09 11:36:51;;;;;;;5.63;4.13;;;;;;;30.29;75.41;100104.38;5057043;28;20033;-75
2023/07/09 11:39:27;;;;;;;;;;;;;;;30.44;74.11;100102.63;5050367;28;19917;-74
2023/07/09 11:41:52;;;;;;;;;;;;;;;30.49;73.92;100094.50;5055149;28;20384;-75
2023/07/09 11:44:19;;;;;;;;;;;;;;;30.57;73.59;100089.69;5055416;28;19970;-75
2023/07/09 11:46:57;;;;;;;;;;;;;;;30.66;74.33;100093.53;5051232;28;19920;-75
2023/07/09 11:49:25;;;;;;;;;;;;;;;30.71;74.90;100090.84;5063825;28;19916;-77
2023/07/09 11:51:54;;;;;;;;;;;;;;;30.75;74.74;100086.53;5052968;28;20004;-75
2023/07/09 11:54:19;;;;;;;;;;;;;;;30.84;74.39;100080.31;5052523;28;19917;-76
2023/07/09 11:56:55;;;;;;;;;;;;;;;30.89;73.95;100082.25;5066232;28;19926;-76
2023/07/09 11:59:20;;;;;;;;;;;;;;;31.01;71.90;100069.25;5054924;28;20025;-76
2023/07/09 12:01:48;;;;;;;;;;;;;;;31.09;71.33;100074.25;5050805;28;19971;-77
2023/07/09 12:04:17;;;;;;;;;;;;;;;31.16;71.81;100063.09;5049940;28;19989;-75
2023/07/09 12:06:44;;;;;;;;;;;;;;;31.27;70.10;100056.59;5048628;28;19917;-76
2023/07/09 12:09:19;;;;;;;;;;;;;;;31.38;69.99;100062.91;5054637;28;19947;-75
2023/07/09 12:11:47;;;;;;;;;;;;;;;31.46;69.28;100054.19;5050409;28;19923;-76
2023/07/09 12:14:17;;;;;;;;;;;;;;;31.57;69.17;100051.25;5047254;28;19948;-75
2023/07/09 12:16:45;;;;;;;;;;;;;;;31.70;69.84;100053.50;5047849;28;19916;-76
2023/07/09 12:19:11;;;;;;;;;;;;;;;31.85;70.21;100058.19;5050708;28;19916;-76
2023/07/09 12:21:38;;;;;;;;;;;;;;;31.89;68.18;100048.34;5051386;28;19916;-76